createdAt,value
2022-09-25T00:01:11.336Z,95.34
2022-09-25T00:03:38.914Z,95.07
2022-09-25T00:06:22.219Z,95.40
2022-09-25T00:08:49.518Z,96.08
2022-09-25T00:11:20.876Z,96.49
2022-09-25T00:13:47.981Z,96.58
2022-09-25T00:16:23.539Z,96.52
2022-09-25T00:19:09.263Z,96.19
2022-09-25T00:21:37.242Z,95.88
2022-09-25T00:24:09.609Z,95.92
2022-09-25T00:26:40.477Z,96.29
2022-09-25T00:29:10.621Z,95.96
2022-09-25T00:31:37.443Z,95.54
2022-09-25T00:34:05.730Z,95.17
2022-09-25T00:36:33.321Z,96.12
2022-09-25T00:39:00.626Z,96.71
2022-09-25T00:41:31.965Z,97.11
2022-09-25T00:44:01.382Z,96.17
2022-09-25T00:46:41.867Z,96.53
2022-09-25T00:49:19.164Z,95.67
2022-09-25T00:51:55.119Z,95.33
2022-09-25T00:54:32.643Z,95.52
2022-09-25T00:57:07.368Z,93.65
2022-09-25T00:59:40.384Z,94.41
2022-09-25T01:02:14.118Z,94.54
2022-09-25T01:04:46.170Z,94.76
2022-09-25T01:07:14.843Z,94.71
2022-09-25T01:09:41.776Z,94.36
2022-09-25T01:12:09.386Z,95.09
2022-09-25T01:14:37.789Z,94.21
2022-09-25T01:17:33.070Z,94.58
2022-09-25T01:20:47.986Z,94.80
2022-09-25T01:23:43.318Z,95.52
2022-09-25T01:26:48.677Z,95.10
2022-09-25T01:29:33.727Z,95.10
2022-09-25T01:32:27.852Z,95.65
2022-09-25T01:35:26.675Z,95.83
2022-09-25T01:38:15.144Z,96.58
2022-09-25T01:41:02.222Z,96.89
2022-09-25T01:43:37.949Z,96.30
2022-09-25T01:46:21.870Z,95.62
2022-09-25T01:48:55.872Z,96.24
2022-09-25T01:51:41.801Z,95.85
2022-09-25T01:54:15.423Z,96.08
2022-09-25T01:56:56.611Z,95.77
2022-09-25T01:59:38.112Z,96.59
2022-09-25T02:02:10.081Z,96.68
2022-09-25T02:05:00.287Z,96.87
2022-09-25T02:07:35.435Z,96.04
2022-09-25T02:10:11.147Z,96.21
2022-09-25T02:12:46.715Z,95.81
2022-09-25T02:15:32.655Z,95.72
2022-09-25T02:18:27.408Z,95.45
2022-09-25T02:21:04.048Z,96.01
2022-09-25T02:23:51.373Z,96.05
2022-09-25T02:26:32.726Z,96.22
2022-09-25T02:29:00.126Z,95.65
2022-09-25T02:31:41.013Z,96.14
2022-09-25T02:34:13.784Z,96.95
2022-09-25T02:36:43.089Z,96.76
2022-09-25T02:39:11.523Z,96.36
2022-09-25T02:42:20.850Z,96.66
2022-09-25T02:45:07.918Z,97.86
2022-09-25T02:47:55.893Z,98.06
2022-09-25T02:50:50.916Z,98.24
2022-09-25T02:53:43.599Z,98.62
2022-09-25T02:56:28.177Z,99.21
2022-09-25T02:59:02.038Z,98.73
2022-09-25T03:01:32.385Z,98.86
2022-09-25T03:04:01.072Z,97.77
2022-09-25T03:06:30.304Z,97.72
2022-09-25T03:08:59.023Z,97.90
2022-09-25T03:11:27.077Z,97.86
2022-09-25T03:14:02.947Z,97.54
2022-09-25T03:16:51.492Z,97.90
2022-09-25T03:19:22.121Z,97.76
2022-09-25T03:21:49.894Z,96.93
2022-09-25T03:24:17.096Z,97.68
2022-09-25T03:26:44.495Z,97.79
2022-09-25T03:29:14.680Z,99.22
2022-09-25T03:31:42.689Z,98.58
2022-09-25T03:34:11.597Z,99.42
2022-09-25T03:36:38.827Z,99.15
2022-09-25T03:39:06.686Z,99.42
2022-09-25T03:41:35.113Z,100.00
2022-09-25T03:44:02.588Z,100.00
2022-09-25T03:46:32.607Z,100.00
2022-09-25T03:49:00.244Z,100.00
2022-09-25T03:51:29.070Z,100.00
2022-09-25T03:53:56.231Z,100.00
2022-09-25T03:56:26.770Z,100.00
2022-09-25T03:58:54.742Z,100.00
2022-09-25T04:01:22.924Z,100.00
2022-09-25T04:03:50.892Z,100.00
2022-09-25T04:06:22.537Z,100.00
2022-09-25T04:08:50.122Z,100.00
2022-09-25T04:11:19.290Z,100.00
2022-09-25T04:13:46.808Z,100.00
2022-09-25T04:16:16.672Z,100.00
2022-09-25T04:18:44.102Z,99.71
2022-09-25T04:21:13.033Z,100.00
2022-09-25T04:23:40.729Z,99.73
2022-09-25T04:26:09.006Z,100.00
2022-09-25T04:28:36.274Z,99.24
2022-09-25T04:31:04.025Z,100.00
2022-09-25T04:33:46.455Z,100.00
2022-09-25T04:36:15.277Z,100.00
2022-09-25T04:38:42.300Z,99.96
2022-09-25T04:41:09.269Z,99.74
2022-09-25T04:43:36.609Z,99.58
2022-09-25T04:46:14.213Z,99.60
2022-09-25T04:48:47.059Z,99.52
2022-09-25T04:51:13.935Z,100.00
2022-09-25T04:53:40.808Z,100.00
2022-09-25T04:56:14.584Z,100.00
2022-09-25T04:58:49.314Z,100.00
2022-09-25T05:01:19.327Z,100.00
2022-09-25T05:03:53.959Z,100.00
2022-09-25T05:06:22.111Z,100.00
2022-09-25T05:08:49.629Z,100.00
2022-09-25T05:11:16.517Z,100.00
2022-09-25T05:13:43.832Z,100.00
2022-09-25T05:16:10.617Z,100.00
2022-09-25T05:18:37.984Z,100.00
2022-09-25T05:21:05.496Z,100.00
2022-09-25T05:23:32.309Z,100.00
2022-09-25T05:26:01.945Z,100.00
2022-09-25T05:28:32.426Z,100.00
2022-09-25T05:31:04.210Z,100.00
2022-09-25T05:33:35.471Z,100.00
2022-09-25T05:36:07.318Z,100.00
2022-09-25T05:38:36.625Z,100.00
2022-09-25T05:41:08.760Z,100.00
2022-09-25T05:43:40.707Z,100.00
2022-09-25T05:46:07.854Z,100.00
2022-09-25T05:48:34.995Z,99.99
2022-09-25T05:51:01.954Z,100.00
2022-09-25T05:53:30.520Z,100.00
2022-09-25T05:56:00.607Z,100.00
2022-09-25T05:58:29.752Z,99.74
2022-09-25T06:01:04.045Z,99.75
2022-09-25T06:03:31.615Z,99.95
2022-09-25T06:06:02.446Z,99.17
2022-09-25T06:08:35.388Z,99.22
2022-09-25T06:11:03.214Z,98.83
2022-09-25T06:13:34.710Z,98.89
2022-09-25T06:16:02.099Z,98.96
2022-09-25T06:18:28.962Z,98.61
2022-09-25T06:21:02.581Z,99.31
2022-09-25T06:23:29.801Z,99.13
2022-09-25T06:26:05.275Z,98.76
2022-09-25T06:28:32.971Z,99.26
2022-09-25T06:31:01.767Z,98.60
2022-09-25T06:33:28.657Z,99.11
2022-09-25T06:35:55.478Z,100.00
2022-09-25T06:38:22.658Z,99.64
2022-09-25T06:40:49.532Z,99.65
2022-09-25T06:43:16.910Z,98.82
2022-09-25T06:45:44.202Z,99.21
2022-09-25T06:48:16.212Z,98.88
2022-09-25T06:50:52.504Z,98.34
2022-09-25T06:53:23.073Z,97.93
2022-09-25T06:55:50.718Z,96.71
2022-09-25T06:58:23.235Z,97.00
2022-09-25T07:00:52.245Z,97.34
2022-09-25T07:03:37.935Z,96.27
2022-09-25T07:06:08.281Z,96.65
2022-09-25T07:08:35.289Z,95.61
2022-09-25T07:11:02.756Z,95.98
2022-09-25T07:13:33.465Z,95.59
2022-09-25T07:16:03.971Z,95.72
2022-09-25T07:18:31.246Z,95.85
2022-09-25T07:21:08.693Z,95.12
2022-09-25T07:23:36.417Z,93.71
2022-09-25T07:26:09.117Z,91.47
2022-09-25T07:28:38.270Z,91.88
2022-09-25T07:31:19.261Z,90.47
2022-09-25T07:33:48.002Z,90.06
2022-09-25T07:36:17.058Z,90.33
2022-09-25T07:38:46.001Z,90.49
2022-09-25T07:41:13.840Z,90.67
2022-09-25T07:43:43.642Z,89.92
2022-09-25T07:46:11.306Z,89.98
2022-09-25T07:48:38.171Z,90.78
2022-09-25T07:51:08.224Z,90.16
2022-09-25T07:53:35.032Z,90.49
2022-09-25T07:56:06.458Z,90.77
2022-09-25T07:58:35.793Z,90.41
2022-09-25T08:01:06.018Z,89.75
2022-09-25T08:03:33.513Z,88.85
2022-09-25T08:06:02.850Z,89.09
2022-09-25T08:08:30.790Z,88.71
2022-09-25T08:11:02.846Z,88.23
2022-09-25T08:13:32.593Z,87.83
2022-09-25T08:16:03.318Z,88.85
2022-09-25T08:18:30.191Z,89.26
2022-09-25T08:21:04.066Z,88.96
2022-09-25T08:23:31.965Z,88.86
2022-09-25T08:25:59.748Z,90.92
2022-09-25T08:28:27.209Z,89.79
2022-09-25T08:30:54.209Z,91.23
2022-09-25T08:33:21.134Z,91.21
2022-09-25T08:36:05.656Z,90.42
2022-09-25T08:38:33.256Z,90.26
2022-09-25T08:41:15.669Z,90.07
2022-09-25T08:44:10.706Z,89.46
2022-09-25T08:47:05.198Z,88.56
2022-09-25T08:49:38.277Z,87.67
2022-09-25T08:52:11.379Z,85.76
2022-09-25T08:54:42.159Z,86.20
2022-09-25T08:57:40.304Z,86.18
2022-09-25T09:00:18.468Z,88.09
2022-09-25T09:02:57.754Z,86.63
2022-09-25T09:05:34.874Z,88.08
2022-09-25T09:08:11.282Z,86.87
2022-09-25T09:10:49.199Z,86.81
2022-09-25T09:13:41.425Z,87.18
2022-09-25T09:16:33.816Z,87.26
2022-09-25T09:19:04.768Z,87.22
2022-09-25T09:21:43.829Z,87.13
2022-09-25T09:24:44.664Z,87.69
2022-09-25T09:27:50.203Z,88.60
2022-09-25T09:30:41.681Z,88.02
2022-09-25T09:33:43.832Z,88.16
2022-09-25T09:36:20.040Z,88.23
2022-09-25T09:39:28.606Z,88.74
2022-09-25T09:42:22.315Z,87.96
2022-09-25T09:45:14.760Z,87.50
2022-09-25T09:48:14.626Z,86.09
2022-09-25T09:51:16.071Z,84.28
2022-09-25T09:53:51.139Z,83.18
2022-09-25T09:56:25.486Z,82.37
2022-09-25T09:59:14.752Z,82.34
2022-09-25T10:01:45.181Z,80.73
2022-09-25T10:04:18.198Z,79.49
2022-09-25T10:06:58.478Z,78.19
2022-09-25T10:09:26.441Z,77.25
2022-09-25T10:12:08.017Z,75.79
2022-09-25T10:14:42.572Z,67.91
2022-09-25T10:17:13.341Z,67.54
2022-09-25T10:19:57.507Z,68.50
2022-09-25T10:22:36.085Z,70.52
2022-09-25T10:25:03.464Z,69.05
2022-09-25T10:27:38.251Z,68.86
2022-09-25T10:30:10.870Z,68.87
2022-09-25T10:33:06.355Z,69.45
2022-09-25T10:35:39.134Z,71.59
2022-09-25T10:38:20.150Z,73.79
2022-09-25T10:41:07.673Z,73.03
2022-09-25T10:43:35.106Z,73.73
2022-09-25T10:46:15.903Z,75.44
2022-09-25T10:49:01.852Z,74.39
2022-09-25T10:51:32.321Z,74.99
2022-09-25T10:54:15.412Z,73.32
2022-09-25T10:56:42.735Z,71.92
2022-09-25T10:59:21.046Z,69.96
2022-09-25T11:01:50.869Z,68.62
2022-09-25T11:04:28.004Z,65.42
2022-09-25T11:07:02.620Z,64.37
2022-09-25T11:09:32.485Z,63.33
2022-09-25T11:12:14.201Z,62.36
2022-09-25T11:14:55.256Z,61.70
2022-09-25T11:17:42.037Z,61.54
2022-09-25T11:20:29.640Z,63.26
2022-09-25T11:23:08.575Z,63.34
2022-09-25T11:25:52.991Z,63.63
2022-09-25T11:28:41.320Z,64.83
2022-09-25T11:31:41.499Z,66.59
2022-09-25T11:34:08.379Z,65.66
2022-09-25T11:37:01.175Z,66.29
2022-09-25T11:40:03.920Z,68.94
2022-09-25T11:42:52.170Z,70.75
2022-09-25T11:45:41.094Z,74.09
2022-09-25T11:48:37.355Z,74.55
2022-09-25T11:51:47.495Z,76.01
2022-09-25T11:55:03.588Z,76.64
2022-09-25T11:57:39.013Z,76.24
2022-09-25T12:00:21.269Z,76.17
2022-09-25T12:03:31.181Z,75.11
2022-09-25T12:06:14.335Z,75.40
2022-09-25T12:09:33.556Z,73.54
2022-09-25T12:12:35.200Z,73.62
2022-09-25T12:15:14.282Z,74.59
2022-09-25T12:18:15.586Z,75.23
2022-09-25T12:21:33.986Z,75.32
2022-09-25T12:24:18.776Z,76.13
2022-09-25T12:27:14.872Z,75.53
2022-09-25T12:30:12.965Z,75.56
2022-09-25T12:33:15.672Z,75.99
2022-09-25T12:36:04.184Z,75.99
2022-09-25T12:38:55.367Z,75.73
2022-09-25T12:41:36.721Z,74.87
2022-09-25T12:44:17.966Z,75.03
2022-09-25T12:46:50.791Z,76.01
2022-09-25T12:49:41.693Z,76.91
2022-09-25T12:52:16.913Z,76.22
2022-09-25T12:55:19.077Z,74.67
2022-09-25T12:57:55.784Z,73.83
2022-09-25T13:00:25.634Z,74.48
2022-09-25T13:03:32.863Z,75.06
2022-09-25T13:06:59.674Z,76.32
2022-09-25T13:09:44.880Z,76.63
2022-09-25T13:12:34.293Z,76.71
2022-09-25T13:15:23.461Z,76.58
2022-09-25T13:17:50.990Z,76.96
2022-09-25T13:20:26.625Z,76.91
2022-09-25T13:23:09.562Z,75.83
2022-09-25T13:26:00.356Z,75.95
2022-09-25T13:28:36.155Z,76.11
2022-09-25T13:31:12.967Z,76.22
2022-09-25T13:33:55.216Z,76.10
2022-09-25T13:36:24.266Z,77.48
2022-09-25T13:39:25.541Z,78.07
2022-09-25T13:42:31.920Z,76.58
2022-09-25T13:45:29.791Z,75.79
2022-09-25T13:48:30.863Z,75.98
2022-09-25T13:51:33.239Z,76.00
2022-09-25T13:54:04.883Z,75.82
2022-09-25T13:56:40.104Z,74.98
2022-09-25T13:59:10.238Z,75.18
2022-09-25T14:01:59.980Z,75.21
2022-09-25T14:04:39.249Z,74.90
2022-09-25T14:07:28.750Z,76.35
2022-09-25T14:09:57.915Z,76.81
2022-09-25T14:12:42.419Z,76.77
2022-09-25T14:15:28.287Z,74.58
2022-09-25T14:17:57.469Z,75.12
2022-09-25T14:20:35.048Z,74.23
2022-09-25T14:23:13.882Z,73.68
2022-09-25T14:25:44.552Z,73.60
2022-09-25T14:28:30.080Z,73.00
2022-09-25T14:31:19.152Z,72.72
2022-09-25T14:34:45.153Z,72.92
2022-09-25T14:37:30.150Z,73.52
2022-09-25T14:40:35.636Z,74.33
2022-09-25T14:43:41.375Z,74.26
2022-09-25T14:46:20.531Z,73.77
2022-09-25T14:49:11.661Z,73.17
2022-09-25T14:51:43.466Z,73.34
2022-09-25T14:54:16.077Z,73.43
2022-09-25T14:56:50.190Z,74.41
2022-09-25T14:59:40.125Z,73.85
2022-09-25T15:02:23.707Z,73.76
2022-09-25T15:04:51.129Z,74.31
2022-09-25T15:07:27.818Z,75.50
2022-09-25T15:09:59.146Z,75.13
2022-09-25T15:12:36.524Z,75.92
2022-09-25T15:15:16.405Z,76.34
2022-09-25T15:17:54.687Z,74.65
2022-09-25T15:20:25.407Z,74.58
2022-09-25T15:23:03.482Z,74.51
2022-09-25T15:25:37.216Z,74.06
2022-09-25T15:28:08.988Z,75.12
2022-09-25T15:30:39.785Z,74.05
2022-09-25T15:33:06.664Z,74.54
2022-09-25T15:35:33.526Z,73.25
2022-09-25T15:38:12.143Z,73.78
2022-09-25T15:40:42.898Z,73.12
2022-09-25T15:43:15.999Z,74.05
2022-09-25T15:46:08.265Z,73.91
2022-09-25T15:48:40.588Z,74.37
2022-09-25T15:51:21.241Z,73.84
2022-09-25T15:54:31.545Z,73.99
2022-09-25T15:57:01.492Z,74.73
2022-09-25T15:59:59.392Z,74.70
2022-09-25T16:02:51.876Z,73.24
2022-09-25T16:05:29.839Z,73.85
2022-09-25T16:08:31.985Z,73.87
2022-09-25T16:11:26.501Z,74.38
2022-09-25T16:14:17.513Z,74.13
2022-09-25T16:16:50.301Z,74.86
2022-09-25T16:19:26.345Z,74.99
2022-09-25T16:21:54.339Z,74.98
2022-09-25T16:24:28.195Z,74.81
2022-09-25T16:27:03.574Z,75.08
2022-09-25T16:29:34.302Z,74.77
2022-09-25T16:32:08.706Z,75.37
2022-09-25T16:34:40.750Z,75.85
2022-09-25T16:37:21.203Z,76.53
2022-09-25T16:40:24.585Z,76.46
2022-09-25T16:42:55.841Z,76.83
2022-09-25T16:45:29.470Z,77.02
2022-09-25T16:48:00.077Z,77.52
2022-09-25T16:50:33.533Z,77.19
2022-09-25T16:53:03.390Z,77.84
2022-09-25T16:55:30.701Z,77.79
2022-09-25T16:57:59.167Z,77.13
2022-09-25T17:00:29.692Z,78.33
2022-09-25T17:02:57.016Z,78.37
2022-09-25T17:05:26.716Z,77.80
2022-09-25T17:08:17.304Z,77.84
2022-09-25T17:10:46.139Z,79.37
2022-09-25T17:13:16.166Z,79.20
2022-09-25T17:15:43.183Z,78.69
2022-09-25T17:18:19.764Z,78.44
2022-09-25T17:20:50.474Z,78.06
2022-09-25T17:23:21.474Z,77.77
2022-09-25T17:26:00.822Z,77.71
2022-09-25T17:28:29.395Z,77.42
2022-09-25T17:30:56.842Z,77.84
2022-09-25T17:33:23.902Z,77.19
2022-09-25T17:36:04.963Z,76.56
2022-09-25T17:38:33.813Z,76.88
2022-09-25T17:41:05.922Z,76.17
2022-09-25T17:43:33.655Z,77.27
2022-09-25T17:46:01.303Z,77.64
2022-09-25T17:48:31.819Z,77.50
2022-09-25T17:51:21.122Z,78.04
2022-09-25T17:53:52.841Z,78.08
2022-09-25T17:56:20.124Z,78.34
2022-09-25T17:58:47.176Z,78.40
2022-09-25T18:01:23.763Z,77.97
2022-09-25T18:03:58.820Z,77.77
2022-09-25T18:06:27.978Z,77.76
2022-09-25T18:08:55.989Z,77.91
2022-09-25T18:11:25.406Z,78.77
2022-09-25T18:13:55.396Z,79.28
2022-09-25T18:16:32.043Z,79.75
2022-09-25T18:19:18.377Z,80.54
2022-09-25T18:22:03.649Z,81.28
2022-09-25T18:24:30.593Z,81.75
2022-09-25T18:26:58.023Z,81.47
2022-09-25T18:29:25.596Z,81.77
2022-09-25T18:31:52.814Z,81.90
2022-09-25T18:34:21.643Z,81.67
2022-09-25T18:36:49.799Z,82.20
2022-09-25T18:39:20.155Z,81.27
2022-09-25T18:41:48.451Z,81.28
2022-09-25T18:44:17.575Z,81.17
2022-09-25T18:46:44.689Z,81.15
2022-09-25T18:49:11.849Z,81.29
2022-09-25T18:51:38.710Z,81.15
2022-09-25T18:54:05.569Z,81.40
2022-09-25T18:56:34.471Z,80.97
2022-09-25T18:59:05.512Z,81.15
2022-09-25T19:01:36.101Z,81.29
2022-09-25T19:04:03.835Z,80.91
2022-09-25T19:06:30.726Z,81.34
2022-09-25T19:08:58.119Z,81.96
2022-09-25T19:11:26.864Z,82.07
2022-09-25T19:13:54.413Z,82.13
2022-09-25T19:16:22.172Z,82.70
2022-09-25T19:18:50.218Z,82.00
2022-09-25T19:21:22.472Z,82.41
2022-09-25T19:23:50.242Z,82.68
2022-09-25T19:26:23.146Z,82.95
2022-09-25T19:28:49.959Z,82.88
2022-09-25T19:31:26.612Z,83.43
2022-09-25T19:33:55.553Z,82.47
2022-09-25T19:36:33.004Z,82.93
2022-09-25T19:39:01.192Z,81.87
2022-09-25T19:41:33.968Z,81.39
2022-09-25T19:44:12.847Z,81.99
2022-09-25T19:46:42.118Z,81.12
2022-09-25T19:49:10.206Z,81.66
2022-09-25T19:51:37.652Z,80.68
2022-09-25T19:54:07.395Z,81.03
2022-09-25T19:56:40.753Z,80.76
2022-09-25T19:59:16.077Z,80.96
2022-09-25T20:01:43.630Z,80.73
2022-09-25T20:04:17.194Z,80.98
2022-09-25T20:06:45.943Z,81.21
2022-09-25T20:09:12.914Z,81.67
2022-09-25T20:11:39.802Z,82.62
2022-09-25T20:14:07.812Z,82.84
2022-09-25T20:16:37.526Z,82.54
2022-09-25T20:19:06.734Z,81.89
2022-09-25T20:21:37.449Z,82.38
2022-09-25T20:24:07.474Z,81.46
2022-09-25T20:26:36.276Z,82.06
2022-09-25T20:29:08.850Z,82.31
2022-09-25T20:31:38.207Z,81.17
2022-09-25T20:34:05.853Z,81.69
2022-09-25T20:36:32.789Z,82.71
2022-09-25T20:39:00.904Z,82.86
2022-09-25T20:41:27.878Z,82.71
2022-09-25T20:43:57.188Z,83.46
2022-09-25T20:46:26.286Z,83.15
2022-09-25T20:48:57.381Z,82.74
2022-09-25T20:51:31.360Z,83.15
2022-09-25T20:54:07.656Z,82.64
2022-09-25T20:56:36.536Z,82.84
2022-09-25T20:59:05.603Z,82.69
2022-09-25T21:01:37.611Z,82.60
2022-09-25T21:04:08.030Z,82.48
2022-09-25T21:06:38.756Z,82.65
2022-09-25T21:09:12.818Z,82.81
2022-09-25T21:11:40.338Z,82.72
2022-09-25T21:14:07.435Z,83.29
2022-09-25T21:16:34.405Z,82.30
2022-09-25T21:19:04.678Z,82.77
2022-09-25T21:21:33.417Z,82.62
2022-09-25T21:24:02.309Z,83.08
2022-09-25T21:26:31.453Z,83.22
2022-09-25T21:29:01.709Z,83.23
2022-09-25T21:31:35.172Z,82.90
2022-09-25T21:34:03.275Z,83.40
2022-09-25T21:36:30.948Z,83.07
2022-09-25T21:39:00.163Z,83.50
2022-09-25T21:41:29.960Z,83.31
2022-09-25T21:44:06.262Z,83.64
2022-09-25T21:46:34.829Z,83.62
2022-09-25T21:49:05.682Z,84.03
2022-09-25T21:51:38.830Z,84.78
2022-09-25T21:54:08.322Z,84.73
2022-09-25T21:56:35.887Z,85.02
2022-09-25T21:59:08.361Z,85.49
2022-09-25T22:01:38.697Z,85.73
2022-09-25T22:04:07.725Z,85.52
2022-09-25T22:06:41.921Z,86.64
2022-09-25T22:09:15.266Z,85.92
2022-09-25T22:11:43.454Z,86.61
2022-09-25T22:14:15.826Z,85.94
2022-09-25T22:16:46.387Z,86.42
2022-09-25T22:19:29.214Z,86.23
2022-09-25T22:21:59.247Z,86.21
2022-09-25T22:24:27.556Z,86.32
2022-09-25T22:26:55.860Z,86.51
2022-09-25T22:29:23.682Z,87.14
2022-09-25T22:31:50.650Z,87.53
2022-09-25T22:34:29.142Z,87.81
2022-09-25T22:36:59.957Z,87.54
2022-09-25T22:39:28.395Z,88.54
2022-09-25T22:41:56.471Z,90.23
2022-09-25T22:44:23.707Z,90.09
2022-09-25T22:46:51.138Z,90.94
2022-09-25T22:49:18.196Z,91.47
2022-09-25T22:51:45.367Z,91.15
2022-09-25T22:54:14.483Z,91.46
2022-09-25T22:56:41.823Z,92.29
2022-09-25T22:59:14.511Z,92.20
2022-09-25T23:01:49.901Z,92.07
2022-09-25T23:04:20.971Z,92.09
2022-09-25T23:06:48.466Z,92.59
2022-09-25T23:09:19.830Z,92.53
2022-09-25T23:11:47.264Z,92.13
2022-09-25T23:14:19.761Z,92.47
2022-09-25T23:16:48.651Z,93.03
2022-09-25T23:19:16.405Z,92.41
2022-09-25T23:21:43.763Z,92.96
2022-09-25T23:24:16.763Z,93.96
2022-09-25T23:26:45.583Z,94.69
2022-09-25T23:29:16.576Z,96.39
2022-09-25T23:31:44.715Z,95.25
2022-09-25T23:34:11.724Z,95.12
2022-09-25T23:36:39.192Z,95.13
2022-09-25T23:39:08.650Z,94.58
2022-09-25T23:41:38.714Z,94.27
2022-09-25T23:44:08.692Z,94.28
2022-09-25T23:46:39.773Z,94.45
2022-09-25T23:49:07.077Z,94.28
2022-09-25T23:51:34.141Z,94.62
2022-09-25T23:54:01.993Z,95.23
2022-09-25T23:56:32.749Z,94.75
2022-09-25T23:59:01.534Z,93.93
